sensor_id;sensor_type;location;lat;lon;timestamp;P1;durP1;ratioP1;P2;durP2;ratioP2
19004;SDS011;9635;52.078;8.648;2023-04-02T00:00:20;8.23;;;5.72;;
19004;SDS011;9635;52.078;8.648;2023-04-02T00:05:36;7.47;;;5.68;;
19004;SDS011;9635;52.078;8.648;2023-04-02T00:10:52;10.52;;;6.10;;
19004;SDS011;9635;52.078;8.648;2023-04-02T00:15:57;10.02;;;6.55;;
19004;SDS011;9635;52.078;8.648;2023-04-02T00:21:05;9.77;;;6.65;;
19004;SDS011;9635;52.078;8.648;2023-04-02T00:26:23;7.70;;;6.07;;
19004;SDS011;9635;52.078;8.648;2023-04-02T00:31:31;6.40;;;5.28;;
19004;SDS011;9635;52.078;8.648;2023-04-02T00:36:36;5.82;;;5.10;;
19004;SDS011;9635;52.078;8.648;2023-04-02T00:41:39;6.13;;;4.60;;
19004;SDS011;9635;52.078;8.648;2023-04-02T00:46:46;4.93;;;3.75;;
19004;SDS011;9635;52.078;8.648;2023-04-02T00:51:53;5.45;;;3.72;;
19004;SDS011;9635;52.078;8.648;2023-04-02T00:56:59;7.32;;;4.10;;
19004;SDS011;9635;52.078;8.648;2023-04-02T01:07:27;5.65;;;4.75;;
19004;SDS011;9635;52.078;8.648;2023-04-02T01:12:47;8.07;;;5.10;;
19004;SDS011;9635;52.078;8.648;2023-04-02T01:18:01;7.22;;;5.75;;
19004;SDS011;9635;52.078;8.648;2023-04-02T01:23:22;8.10;;;5.63;;
19004;SDS011;9635;52.078;8.648;2023-04-02T01:28:31;7.80;;;5.55;;
19004;SDS011;9635;52.078;8.648;2023-04-02T01:33:47;11.00;;;6.43;;
19004;SDS011;9635;52.078;8.648;2023-04-02T01:38:52;9.55;;;6.70;;
19004;SDS011;9635;52.078;8.648;2023-04-02T01:44:04;17.08;;;8.20;;
19004;SDS011;9635;52.078;8.648;2023-04-02T01:49:11;10.65;;;7.50;;
19004;SDS011;9635;52.078;8.648;2023-04-02T01:54:16;12.75;;;8.15;;
19004;SDS011;9635;52.078;8.648;2023-04-02T01:59:21;17.20;;;8.43;;
19004;SDS011;9635;52.078;8.648;2023-04-02T02:04:32;20.20;;;8.38;;
19004;SDS011;9635;52.078;8.648;2023-04-02T02:09:35;11.80;;;8.25;;
19004;SDS011;9635;52.078;8.648;2023-04-02T02:14:40;17.23;;;8.40;;
19004;SDS011;9635;52.078;8.648;2023-04-02T02:19:48;15.00;;;8.18;;
19004;SDS011;9635;52.078;8.648;2023-04-02T02:24:56;17.65;;;7.55;;
19004;SDS011;9635;52.078;8.648;2023-04-02T02:30:03;16.98;;;7.40;;
19004;SDS011;9635;52.078;8.648;2023-04-02T02:35:14;10.65;;;6.47;;
19004;SDS011;9635;52.078;8.648;2023-04-02T02:40:25;14.35;;;6.30;;
19004;SDS011;9635;52.078;8.648;2023-04-02T02:45:34;13.23;;;6.10;;
19004;SDS011;9635;52.078;8.648;2023-04-02T02:50:40;12.13;;;6.47;;
19004;SDS011;9635;52.078;8.648;2023-04-02T02:55:44;11.27;;;6.20;;
19004;SDS011;9635;52.078;8.648;2023-04-02T03:00:54;13.18;;;6.30;;
19004;SDS011;9635;52.078;8.648;2023-04-02T03:05:59;13.07;;;5.50;;
19004;SDS011;9635;52.078;8.648;2023-04-02T03:11:07;9.35;;;5.25;;
19004;SDS011;9635;52.078;8.648;2023-04-02T03:16:19;14.00;;;6.40;;
19004;SDS011;9635;52.078;8.648;2023-04-02T03:21:29;8.73;;;4.57;;
19004;SDS011;9635;52.078;8.648;2023-04-02T03:26:37;9.25;;;5.18;;
19004;SDS011;9635;52.078;8.648;2023-04-02T03:31:47;9.45;;;5.97;;
19004;SDS011;9635;52.078;8.648;2023-04-02T03:36:56;12.10;;;5.13;;
19004;SDS011;9635;52.078;8.648;2023-04-02T03:42:03;9.20;;;5.30;;
19004;SDS011;9635;52.078;8.648;2023-04-02T03:47:13;8.85;;;5.03;;
19004;SDS011;9635;52.078;8.648;2023-04-02T03:52:23;7.50;;;3.97;;
19004;SDS011;9635;52.078;8.648;2023-04-02T03:57:31;10.65;;;4.25;;
19004;SDS011;9635;52.078;8.648;2023-04-02T04:02:41;17.02;;;4.47;;
19004;SDS011;9635;52.078;8.648;2023-04-02T04:07:49;13.13;;;4.25;;
19004;SDS011;9635;52.078;8.648;2023-04-02T04:12:55;7.55;;;3.60;;
19004;SDS011;9635;52.078;8.648;2023-04-02T04:18:08;11.32;;;3.50;;
19004;SDS011;9635;52.078;8.648;2023-04-02T04:23:22;7.50;;;3.17;;
19004;SDS011;9635;52.078;8.648;2023-04-02T04:28:33;8.35;;;3.10;;
19004;SDS011;9635;52.078;8.648;2023-04-02T04:33:46;6.73;;;3.40;;
19004;SDS011;9635;52.078;8.648;2023-04-02T04:38:58;8.85;;;3.05;;
19004;SDS011;9635;52.078;8.648;2023-04-02T04:44:06;8.75;;;3.85;;
19004;SDS011;9635;52.078;8.648;2023-04-02T04:49:23;8.25;;;3.45;;
19004;SDS011;9635;52.078;8.648;2023-04-02T04:54:29;5.70;;;2.85;;
19004;SDS011;9635;52.078;8.648;2023-04-02T04:59:34;8.77;;;3.53;;
19004;SDS011;9635;52.078;8.648;2023-04-02T05:04:48;6.63;;;3.53;;
19004;SDS011;9635;52.078;8.648;2023-04-02T05:09:55;11.10;;;3.88;;
19004;SDS011;9635;52.078;8.648;2023-04-02T05:15:09;6.82;;;3.88;;
19004;SDS011;9635;52.078;8.648;2023-04-02T05:20:20;7.60;;;3.47;;
19004;SDS011;9635;52.078;8.648;2023-04-02T05:25:30;8.55;;;3.80;;
19004;SDS011;9635;52.078;8.648;2023-04-02T05:30:43;6.13;;;2.90;;
19004;SDS011;9635;52.078;8.648;2023-04-02T05:35:57;4.72;;;3.13;;
19004;SDS011;9635;52.078;8.648;2023-04-02T05:41:04;7.63;;;3.40;;
19004;SDS011;9635;52.078;8.648;2023-04-02T05:46:16;6.97;;;3.40;;
19004;SDS011;9635;52.078;8.648;2023-04-02T05:51:27;6.80;;;3.85;;
19004;SDS011;9635;52.078;8.648;2023-04-02T05:56:40;6.35;;;3.38;;
19004;SDS011;9635;52.078;8.648;2023-04-02T06:01:46;4.72;;;3.00;;
19004;SDS011;9635;52.078;8.648;2023-04-02T06:07:02;5.18;;;3.33;;
19004;SDS011;9635;52.078;8.648;2023-04-02T06:12:18;5.57;;;3.17;;
19004;SDS011;9635;52.078;8.648;2023-04-02T06:17:29;4.00;;;2.60;;
19004;SDS011;9635;52.078;8.648;2023-04-02T06:22:46;6.55;;;2.80;;
19004;SDS011;9635;52.078;8.648;2023-04-02T06:27:53;4.22;;;3.25;;
19004;SDS011;9635;52.078;8.648;2023-04-02T06:32:59;5.07;;;3.13;;
19004;SDS011;9635;52.078;8.648;2023-04-02T06:38:06;6.38;;;4.80;;
19004;SDS011;9635;52.078;8.648;2023-04-02T06:43:19;7.95;;;2.72;;
19004;SDS011;9635;52.078;8.648;2023-04-02T06:48:36;4.65;;;2.50;;
19004;SDS011;9635;52.078;8.648;2023-04-02T06:53:45;5.30;;;2.42;;
19004;SDS011;9635;52.078;8.648;2023-04-02T06:58:52;8.32;;;2.72;;
19004;SDS011;9635;52.078;8.648;2023-04-02T07:03:56;5.68;;;2.83;;
19004;SDS011;9635;52.078;8.648;2023-04-02T07:09:07;6.95;;;2.55;;
19004;SDS011;9635;52.078;8.648;2023-04-02T07:14:13;4.47;;;2.58;;
19004;SDS011;9635;52.078;8.648;2023-04-02T07:19:18;3.45;;;2.15;;
19004;SDS011;9635;52.078;8.648;2023-04-02T07:24:28;4.65;;;2.00;;
19004;SDS011;9635;52.078;8.648;2023-04-02T07:29:31;5.53;;;2.20;;
19004;SDS011;9635;52.078;8.648;2023-04-02T07:34:33;4.75;;;2.40;;
19004;SDS011;9635;52.078;8.648;2023-04-02T07:39:38;4.63;;;2.15;;
19004;SDS011;9635;52.078;8.648;2023-04-02T07:44:41;6.90;;;2.30;;
19004;SDS011;9635;52.078;8.648;2023-04-02T07:49:44;8.57;;;2.10;;
19004;SDS011;9635;52.078;8.648;2023-04-02T07:54:48;3.75;;;2.30;;
19004;SDS011;9635;52.078;8.648;2023-04-02T07:59:51;3.28;;;2.00;;
19004;SDS011;9635;52.078;8.648;2023-04-02T08:04:56;8.10;;;1.73;;
19004;SDS011;9635;52.078;8.648;2023-04-02T08:10:00;2.30;;;1.50;;
19004;SDS011;9635;52.078;8.648;2023-04-02T08:15:04;1.98;;;1.33;;
19004;SDS011;9635;52.078;8.648;2023-04-02T08:20:09;3.42;;;1.75;;
19004;SDS011;9635;52.078;8.648;2023-04-02T08:25:17;5.80;;;1.60;;
19004;SDS011;9635;52.078;8.648;2023-04-02T08:30:20;4.15;;;1.48;;
19004;SDS011;9635;52.078;8.648;2023-04-02T08:35:23;5.13;;;2.28;;
19004;SDS011;9635;52.078;8.648;2023-04-02T08:40:29;6.90;;;1.90;;
19004;SDS011;9635;52.078;8.648;2023-04-02T08:45:37;2.35;;;1.85;;
19004;SDS011;9635;52.078;8.648;2023-04-02T08:50:48;2.75;;;1.75;;
19004;SDS011;9635;52.078;8.648;2023-04-02T08:55:55;4.88;;;2.08;;
19004;SDS011;9635;52.078;8.648;2023-04-02T09:01:06;5.45;;;1.70;;
19004;SDS011;9635;52.078;8.648;2023-04-02T09:06:14;6.85;;;2.30;;
19004;SDS011;9635;52.078;8.648;2023-04-02T09:11:22;3.30;;;1.52;;
19004;SDS011;9635;52.078;8.648;2023-04-02T09:16:36;2.92;;;1.92;;
19004;SDS011;9635;52.078;8.648;2023-04-02T09:21:44;2.13;;;1.30;;
19004;SDS011;9635;52.078;8.648;2023-04-02T09:26:58;4.30;;;1.88;;
19004;SDS011;9635;52.078;8.648;2023-04-02T09:32:04;3.90;;;1.52;;
19004;SDS011;9635;52.078;8.648;2023-04-02T09:37:19;6.32;;;1.55;;
19004;SDS011;9635;52.078;8.648;2023-04-02T09:42:30;2.55;;;1.40;;
19004;SDS011;9635;52.078;8.648;2023-04-02T09:47:35;5.50;;;1.40;;
19004;SDS011;9635;52.078;8.648;2023-04-02T09:52:42;2.13;;;1.40;;
19004;SDS011;9635;52.078;8.648;2023-04-02T09:57:46;2.50;;;1.45;;
19004;SDS011;9635;52.078;8.648;2023-04-02T10:03:00;3.55;;;1.65;;
19004;SDS011;9635;52.078;8.648;2023-04-02T10:08:08;2.50;;;1.20;;
19004;SDS011;9635;52.078;8.648;2023-04-02T10:13:21;1.90;;;1.70;;
19004;SDS011;9635;52.078;8.648;2023-04-02T10:18:31;4.60;;;1.55;;
19004;SDS011;9635;52.078;8.648;2023-04-02T10:28:48;3.22;;;1.50;;
19004;SDS011;9635;52.078;8.648;2023-04-02T10:34:02;6.13;;;2.05;;
19004;SDS011;9635;52.078;8.648;2023-04-02T10:39:11;8.88;;;3.33;;
19004;SDS011;9635;52.078;8.648;2023-04-02T10:44:23;2.35;;;1.73;;
19004;SDS011;9635;52.078;8.648;2023-04-02T10:49:39;5.90;;;1.80;;
19004;SDS011;9635;52.078;8.648;2023-04-02T10:54:45;8.70;;;2.50;;
19004;SDS011;9635;52.078;8.648;2023-04-02T10:59:52;3.33;;;1.90;;
19004;SDS011;9635;52.078;8.648;2023-04-02T11:04:59;5.45;;;1.85;;
19004;SDS011;9635;52.078;8.648;2023-04-02T11:10:05;2.50;;;1.60;;
19004;SDS011;9635;52.078;8.648;2023-04-02T11:15:14;1.63;;;1.33;;
19004;SDS011;9635;52.078;8.648;2023-04-02T11:25:45;4.43;;;1.75;;
19004;SDS011;9635;52.078;8.648;2023-04-02T11:30:49;2.20;;;1.60;;
19004;SDS011;9635;52.078;8.648;2023-04-02T11:35:53;4.05;;;1.70;;
19004;SDS011;9635;52.078;8.648;2023-04-02T11:40:56;2.63;;;1.42;;
19004;SDS011;9635;52.078;8.648;2023-04-02T11:46:01;5.10;;;1.77;;
19004;SDS011;9635;52.078;8.648;2023-04-02T11:51:09;3.33;;;1.80;;
19004;SDS011;9635;52.078;8.648;2023-04-02T11:56:38;3.97;;;1.48;;
19004;SDS011;9635;52.078;8.648;2023-04-02T12:01:58;2.72;;;1.52;;
19004;SDS011;9635;52.078;8.648;2023-04-02T12:07:19;2.40;;;1.67;;
19004;SDS011;9635;52.078;8.648;2023-04-02T12:12:36;6.03;;;2.78;;
19004;SDS011;9635;52.078;8.648;2023-04-02T12:17:41;4.15;;;1.83;;
19004;SDS011;9635;52.078;8.648;2023-04-02T12:22:46;2.70;;;1.88;;
19004;SDS011;9635;52.078;8.648;2023-04-02T12:28:02;3.45;;;1.70;;
19004;SDS011;9635;52.078;8.648;2023-04-02T12:33:21;4.25;;;1.90;;
19004;SDS011;9635;52.078;8.648;2023-04-02T12:38:32;2.50;;;1.52;;
19004;SDS011;9635;52.078;8.648;2023-04-02T12:43:37;3.85;;;1.45;;
19004;SDS011;9635;52.078;8.648;2023-04-02T12:48:41;7.38;;;1.45;;
19004;SDS011;9635;52.078;8.648;2023-04-02T12:53:47;2.35;;;1.25;;
19004;SDS011;9635;52.078;8.648;2023-04-02T12:58:52;2.63;;;1.25;;
19004;SDS011;9635;52.078;8.648;2023-04-02T13:04:02;6.45;;;1.58;;
19004;SDS011;9635;52.078;8.648;2023-04-02T13:09:23;4.45;;;1.35;;
19004;SDS011;9635;52.078;8.648;2023-04-02T13:14:29;4.95;;;1.70;;
19004;SDS011;9635;52.078;8.648;2023-04-02T13:19:34;3.15;;;1.48;;
19004;SDS011;9635;52.078;8.648;2023-04-02T13:24:37;4.63;;;1.33;;
19004;SDS011;9635;52.078;8.648;2023-04-02T13:29:41;1.58;;;1.20;;
19004;SDS011;9635;52.078;8.648;2023-04-02T13:34:45;2.80;;;1.50;;
19004;SDS011;9635;52.078;8.648;2023-04-02T13:39:48;2.28;;;1.40;;
19004;SDS011;9635;52.078;8.648;2023-04-02T13:44:51;2.55;;;1.40;;
19004;SDS011;9635;52.078;8.648;2023-04-02T13:49:55;2.53;;;1.27;;
19004;SDS011;9635;52.078;8.648;2023-04-02T13:54:58;4.55;;;1.20;;
19004;SDS011;9635;52.078;8.648;2023-04-02T14:00:01;3.83;;;1.33;;
19004;SDS011;9635;52.078;8.648;2023-04-02T14:05:09;3.90;;;1.30;;
19004;SDS011;9635;52.078;8.648;2023-04-02T14:10:21;2.65;;;1.20;;
19004;SDS011;9635;52.078;8.648;2023-04-02T14:15:37;2.85;;;1.30;;
19004;SDS011;9635;52.078;8.648;2023-04-02T14:20:52;2.22;;;1.20;;
19004;SDS011;9635;52.078;8.648;2023-04-02T14:26:08;2.97;;;1.63;;
19004;SDS011;9635;52.078;8.648;2023-04-02T14:31:18;3.50;;;1.50;;
19004;SDS011;9635;52.078;8.648;2023-04-02T14:36:33;2.47;;;1.10;;
19004;SDS011;9635;52.078;8.648;2023-04-02T14:41:47;2.38;;;1.10;;
19004;SDS011;9635;52.078;8.648;2023-04-02T14:46:54;1.77;;;1.17;;
19004;SDS011;9635;52.078;8.648;2023-04-02T14:52:05;2.75;;;1.40;;
19004;SDS011;9635;52.078;8.648;2023-04-02T14:57:14;2.42;;;1.23;;
19004;SDS011;9635;52.078;8.648;2023-04-02T15:02:22;2.13;;;1.17;;
19004;SDS011;9635;52.078;8.648;2023-04-02T15:07:38;3.25;;;2.10;;
19004;SDS011;9635;52.078;8.648;2023-04-02T15:12:46;3.00;;;1.00;;
19004;SDS011;9635;52.078;8.648;2023-04-02T15:17:50;1.98;;;1.23;;
19004;SDS011;9635;52.078;8.648;2023-04-02T15:22:57;1.92;;;0.85;;
19004;SDS011;9635;52.078;8.648;2023-04-02T15:28:12;1.95;;;1.23;;
19004;SDS011;9635;52.078;8.648;2023-04-02T15:33:33;3.42;;;1.13;;
19004;SDS011;9635;52.078;8.648;2023-04-02T15:38:44;1.58;;;1.00;;
19004;SDS011;9635;52.078;8.648;2023-04-02T15:43:54;5.38;;;1.00;;
19004;SDS011;9635;52.078;8.648;2023-04-02T15:49:04;3.78;;;1.60;;
19004;SDS011;9635;52.078;8.648;2023-04-02T15:54:22;2.50;;;1.13;;
19004;SDS011;9635;52.078;8.648;2023-04-02T15:59:52;2.90;;;0.98;;
19004;SDS011;9635;52.078;8.648;2023-04-02T16:05:13;2.88;;;0.82;;
19004;SDS011;9635;52.078;8.648;2023-04-02T16:10:25;1.80;;;0.98;;
19004;SDS011;9635;52.078;8.648;2023-04-02T16:15:43;3.58;;;1.30;;
19004;SDS011;9635;52.078;8.648;2023-04-02T16:20:50;2.65;;;1.25;;
19004;SDS011;9635;52.078;8.648;2023-04-02T16:26:00;4.25;;;2.10;;
19004;SDS011;9635;52.078;8.648;2023-04-02T16:31:12;4.07;;;1.20;;
19004;SDS011;9635;52.078;8.648;2023-04-02T16:36:24;2.40;;;1.23;;
19004;SDS011;9635;52.078;8.648;2023-04-02T16:41:41;1.80;;;0.80;;
19004;SDS011;9635;52.078;8.648;2023-04-02T16:46:57;2.05;;;1.20;;
19004;SDS011;9635;52.078;8.648;2023-04-02T16:52:10;4.40;;;1.10;;
19004;SDS011;9635;52.078;8.648;2023-04-02T16:57:34;2.40;;;1.15;;
19004;SDS011;9635;52.078;8.648;2023-04-02T17:02:45;1.98;;;0.70;;
19004;SDS011;9635;52.078;8.648;2023-04-02T17:08:11;2.22;;;1.10;;
19004;SDS011;9635;52.078;8.648;2023-04-02T17:13:30;4.43;;;1.13;;
19004;SDS011;9635;52.078;8.648;2023-04-02T17:18:40;3.47;;;1.30;;
19004;SDS011;9635;52.078;8.648;2023-04-02T17:23:47;1.23;;;0.77;;
19004;SDS011;9635;52.078;8.648;2023-04-02T17:28:59;3.47;;;1.17;;
19004;SDS011;9635;52.078;8.648;2023-04-02T17:34:08;2.67;;;0.95;;
19004;SDS011;9635;52.078;8.648;2023-04-02T17:39:16;2.20;;;0.90;;
19004;SDS011;9635;52.078;8.648;2023-04-02T17:44:34;1.65;;;1.00;;
19004;SDS011;9635;52.078;8.648;2023-04-02T17:54:56;2.72;;;1.10;;
19004;SDS011;9635;52.078;8.648;2023-04-02T18:05:37;2.72;;;1.15;;
19004;SDS011;9635;52.078;8.648;2023-04-02T18:10:49;2.42;;;1.20;;
19004;SDS011;9635;52.078;8.648;2023-04-02T18:16:03;3.33;;;1.40;;
19004;SDS011;9635;52.078;8.648;2023-04-02T18:21:17;4.22;;;1.77;;
19004;SDS011;9635;52.078;8.648;2023-04-02T18:26:28;2.78;;;1.10;;
19004;SDS011;9635;52.078;8.648;2023-04-02T18:31:41;2.55;;;1.38;;
19004;SDS011;9635;52.078;8.648;2023-04-02T18:36:54;4.97;;;3.35;;
19004;SDS011;9635;52.078;8.648;2023-04-02T18:42:08;3.95;;;1.20;;
19004;SDS011;9635;52.078;8.648;2023-04-02T18:47:23;2.42;;;1.60;;
19004;SDS011;9635;52.078;8.648;2023-04-02T18:52:31;3.85;;;1.20;;
19004;SDS011;9635;52.078;8.648;2023-04-02T18:57:35;4.03;;;1.45;;
19004;SDS011;9635;52.078;8.648;2023-04-02T19:02:45;2.15;;;1.40;;
19004;SDS011;9635;52.078;8.648;2023-04-02T19:07:51;2.78;;;1.25;;
19004;SDS011;9635;52.078;8.648;2023-04-02T19:13:00;1.95;;;0.80;;
19004;SDS011;9635;52.078;8.648;2023-04-02T19:18:06;3.70;;;2.15;;
19004;SDS011;9635;52.078;8.648;2023-04-02T19:23:22;5.80;;;3.05;;
19004;SDS011;9635;52.078;8.648;2023-04-02T19:28:39;7.68;;;3.72;;
19004;SDS011;9635;52.078;8.648;2023-04-02T19:33:51;6.78;;;2.65;;
19004;SDS011;9635;52.078;8.648;2023-04-02T19:39:04;5.60;;;2.17;;
19004;SDS011;9635;52.078;8.648;2023-04-02T19:44:24;2.28;;;1.20;;
19004;SDS011;9635;52.078;8.648;2023-04-02T19:49:28;5.32;;;2.17;;
19004;SDS011;9635;52.078;8.648;2023-04-02T19:54:33;4.32;;;2.60;;
19004;SDS011;9635;52.078;8.648;2023-04-02T19:59:38;4.32;;;2.28;;
19004;SDS011;9635;52.078;8.648;2023-04-02T20:04:42;4.90;;;1.63;;
19004;SDS011;9635;52.078;8.648;2023-04-02T20:09:45;3.45;;;1.67;;
19004;SDS011;9635;52.078;8.648;2023-04-02T20:14:48;4.03;;;1.40;;
19004;SDS011;9635;52.078;8.648;2023-04-02T20:19:52;5.05;;;1.27;;
19004;SDS011;9635;52.078;8.648;2023-04-02T20:24:55;2.40;;;1.35;;
19004;SDS011;9635;52.078;8.648;2023-04-02T20:29:58;4.10;;;1.50;;
19004;SDS011;9635;52.078;8.648;2023-04-02T20:35:03;3.85;;;1.45;;
19004;SDS011;9635;52.078;8.648;2023-04-02T20:40:06;5.82;;;1.20;;
19004;SDS011;9635;52.078;8.648;2023-04-02T20:45:10;3.92;;;1.33;;
19004;SDS011;9635;52.078;8.648;2023-04-02T20:50:14;2.08;;;1.17;;
19004;SDS011;9635;52.078;8.648;2023-04-02T20:55:17;2.03;;;1.17;;
19004;SDS011;9635;52.078;8.648;2023-04-02T21:00:20;2.97;;;1.20;;
19004;SDS011;9635;52.078;8.648;2023-04-02T21:05:25;8.07;;;1.33;;
19004;SDS011;9635;52.078;8.648;2023-04-02T21:10:28;5.00;;;2.28;;
19004;SDS011;9635;52.078;8.648;2023-04-02T21:15:31;4.68;;;2.03;;
19004;SDS011;9635;52.078;8.648;2023-04-02T21:20:36;7.70;;;2.45;;
19004;SDS011;9635;52.078;8.648;2023-04-02T21:25:38;4.50;;;1.65;;
19004;SDS011;9635;52.078;8.648;2023-04-02T21:30:41;6.25;;;2.00;;
19004;SDS011;9635;52.078;8.648;2023-04-02T21:35:45;3.10;;;1.17;;
19004;SDS011;9635;52.078;8.648;2023-04-02T21:40:49;2.85;;;1.00;;
19004;SDS011;9635;52.078;8.648;2023-04-02T21:45:51;2.20;;;0.85;;
19004;SDS011;9635;52.078;8.648;2023-04-02T21:51:04;7.60;;;1.20;;
19004;SDS011;9635;52.078;8.648;2023-04-02T21:56:10;5.25;;;1.02;;
19004;SDS011;9635;52.078;8.648;2023-04-02T22:01:14;3.22;;;0.80;;
19004;SDS011;9635;52.078;8.648;2023-04-02T22:06:30;2.83;;;0.90;;
19004;SDS011;9635;52.078;8.648;2023-04-02T22:11:34;4.95;;;1.17;;
19004;SDS011;9635;52.078;8.648;2023-04-02T22:16:39;2.42;;;1.00;;
19004;SDS011;9635;52.078;8.648;2023-04-02T22:21:43;4.57;;;1.13;;
19004;SDS011;9635;52.078;8.648;2023-04-02T22:26:47;1.85;;;0.93;;
19004;SDS011;9635;52.078;8.648;2023-04-02T22:31:50;4.22;;;1.27;;
19004;SDS011;9635;52.078;8.648;2023-04-02T22:36:54;3.10;;;1.27;;
19004;SDS011;9635;52.078;8.648;2023-04-02T22:41:57;3.92;;;0.90;;
19004;SDS011;9635;52.078;8.648;2023-04-02T22:47:00;4.72;;;1.25;;
19004;SDS011;9635;52.078;8.648;2023-04-02T22:52:04;5.07;;;1.38;;
19004;SDS011;9635;52.078;8.648;2023-04-02T22:57:09;2.22;;;1.05;;
19004;SDS011;9635;52.078;8.648;2023-04-02T23:02:12;4.00;;;1.13;;
19004;SDS011;9635;52.078;8.648;2023-04-02T23:07:16;2.55;;;1.20;;
19004;SDS011;9635;52.078;8.648;2023-04-02T23:12:19;5.75;;;1.77;;
19004;SDS011;9635;52.078;8.648;2023-04-02T23:17:22;2.45;;;1.17;;
19004;SDS011;9635;52.078;8.648;2023-04-02T23:22:26;2.35;;;1.10;;
19004;SDS011;9635;52.078;8.648;2023-04-02T23:27:29;4.53;;;1.20;;
19004;SDS011;9635;52.078;8.648;2023-04-02T23:32:32;4.13;;;1.40;;
19004;SDS011;9635;52.078;8.648;2023-04-02T23:37:37;3.17;;;1.25;;
19004;SDS011;9635;52.078;8.648;2023-04-02T23:42:39;4.15;;;1.38;;
19004;SDS011;9635;52.078;8.648;2023-04-02T23:47:42;4.10;;;1.00;;
19004;SDS011;9635;52.078;8.648;2023-04-02T23:52:47;3.10;;;1.17;;
19004;SDS011;9635;52.078;8.648;2023-04-02T23:57:49;7.20;;;1.30;;
